createdAt,value
2023-11-12T00:00:33.831Z,11.70
2023-11-12T00:03:03.043Z,12.33
2023-11-12T00:05:32.339Z,11.70
2023-11-12T00:08:01.092Z,11.43
2023-11-12T00:10:31.909Z,12.30
2023-11-12T00:13:00.677Z,11.97
2023-11-12T00:15:29.494Z,12.10
2023-11-12T00:17:58.706Z,11.73
2023-11-12T00:20:29.381Z,11.63
2023-11-12T00:23:00.965Z,13.37
2023-11-12T00:25:31.201Z,12.77
2023-11-12T00:28:00.099Z,12.57
2023-11-12T00:30:28.847Z,12.40
2023-11-12T00:32:57.681Z,13.83
2023-11-12T00:35:26.643Z,11.33
2023-11-12T00:37:55.375Z,11.90
2023-11-12T00:40:24.154Z,10.93
2023-11-12T00:42:54.565Z,11.00
2023-11-12T00:45:23.346Z,12.83
2023-11-12T00:47:52.040Z,11.70
2023-11-12T00:50:21.073Z,13.13
2023-11-12T00:52:49.837Z,12.57
2023-11-12T00:55:19.720Z,13.87
2023-11-12T00:57:48.391Z,14.80
2023-11-12T01:00:19.298Z,12.60
2023-11-12T01:02:48.088Z,13.63
2023-11-12T01:05:16.946Z,14.60
2023-11-12T01:07:45.771Z,13.03
2023-11-12T01:10:14.684Z,14.47
2023-11-12T01:12:43.876Z,13.60
2023-11-12T01:15:13.014Z,14.50
2023-11-12T01:17:43.459Z,13.37
2023-11-12T01:20:13.858Z,15.13
2023-11-12T01:22:44.215Z,13.07
2023-11-12T01:25:13.821Z,14.33
2023-11-12T01:27:42.484Z,14.60
2023-11-12T01:30:11.709Z,14.37
2023-11-12T01:32:42.921Z,14.30
2023-11-12T01:35:13.160Z,14.37
2023-11-12T01:37:41.835Z,15.10
2023-11-12T01:40:13.401Z,16.97
2023-11-12T01:42:42.024Z,15.60
2023-11-12T01:45:12.211Z,14.27
2023-11-12T01:47:45.610Z,14.80
2023-11-12T01:50:16.779Z,13.97
2023-11-12T01:52:47.470Z,14.33
2023-11-12T01:55:17.339Z,14.97
2023-11-12T01:57:47.290Z,14.80
2023-11-12T02:00:17.735Z,14.60
2023-11-12T02:02:47.517Z,14.13
2023-11-12T02:05:18.597Z,14.10
2023-11-12T02:07:48.991Z,14.70
2023-11-12T02:10:18.221Z,13.77
2023-11-12T02:12:48.162Z,15.70
2023-11-12T02:15:19.151Z,14.00
2023-11-12T02:17:48.682Z,13.90
2023-11-12T02:20:19.006Z,13.63
2023-11-12T02:22:47.683Z,12.90
2023-11-12T02:25:17.909Z,12.17
2023-11-12T02:27:46.691Z,12.73
2023-11-12T02:30:17.132Z,12.47
2023-11-12T02:32:46.094Z,13.03
2023-11-12T02:35:14.866Z,12.03
2023-11-12T02:37:43.699Z,12.73
2023-11-12T02:40:13.826Z,12.13
2023-11-12T02:42:44.774Z,11.93
2023-11-12T02:45:14.318Z,12.50
2023-11-12T02:47:44.898Z,14.10
2023-11-12T02:50:37.468Z,12.67
2023-11-12T02:53:08.811Z,11.83
2023-11-12T02:55:37.797Z,12.37
2023-11-12T02:58:07.912Z,13.17
2023-11-12T03:00:37.666Z,13.73
2023-11-12T03:03:06.550Z,13.30
2023-11-12T03:05:35.276Z,13.50
2023-11-12T03:08:04.160Z,11.50
2023-11-12T03:10:32.904Z,11.13
2023-11-12T03:13:02.050Z,11.70
2023-11-12T03:15:32.307Z,12.10
2023-11-12T03:18:01.088Z,10.70
2023-11-12T03:20:29.839Z,11.40
2023-11-12T03:22:59.076Z,12.20
2023-11-12T03:25:27.726Z,12.10
2023-11-12T03:27:56.485Z,11.93
2023-11-12T03:30:25.248Z,12.70
2023-11-12T03:32:55.417Z,11.47
2023-11-12T03:35:24.549Z,11.37
2023-11-12T03:37:53.192Z,11.20
2023-11-12T03:40:21.848Z,11.27
2023-11-12T03:42:50.475Z,12.33
2023-11-12T03:45:19.234Z,14.33
2023-11-12T03:47:48.013Z,12.40
2023-11-12T03:50:18.709Z,13.60
2023-11-12T03:52:47.432Z,12.73
2023-11-12T03:55:16.274Z,14.47
2023-11-12T03:57:45.350Z,13.37
2023-11-12T04:00:16.358Z,13.50
2023-11-12T04:02:45.712Z,12.97
2023-11-12T04:05:14.710Z,14.43
2023-11-12T04:07:45.758Z,13.93
2023-11-12T04:10:14.654Z,12.07
2023-11-12T04:12:43.598Z,13.97
2023-11-12T04:15:13.369Z,12.20
2023-11-12T04:17:42.251Z,12.50
2023-11-12T04:20:12.461Z,13.50
2023-11-12T04:22:42.650Z,13.67
2023-11-12T04:25:13.257Z,12.60
2023-11-12T04:27:41.977Z,14.13
2023-11-12T04:30:12.394Z,12.10
2023-11-12T04:32:41.263Z,11.53
2023-11-12T04:35:12.425Z,13.20
2023-11-12T04:37:41.134Z,12.73
2023-11-12T04:40:13.082Z,13.03
2023-11-12T04:42:43.828Z,11.83
2023-11-12T04:45:13.532Z,12.17
2023-11-12T04:47:42.224Z,13.90
2023-11-12T04:50:12.087Z,13.37
2023-11-12T04:52:41.235Z,14.53
2023-11-12T04:55:10.400Z,15.30
2023-11-12T04:57:39.274Z,17.47
2023-11-12T05:00:12.567Z,20.43
2023-11-12T05:02:42.625Z,12.47
2023-11-12T05:05:12.002Z,12.17
2023-11-12T05:07:40.944Z,13.27
2023-11-12T05:10:12.570Z,12.63
2023-11-12T05:12:41.638Z,12.37
2023-11-12T05:15:12.626Z,13.13
2023-11-12T05:17:41.325Z,14.90
2023-11-12T05:20:11.484Z,14.37
2023-11-12T05:22:40.141Z,15.37
2023-11-12T05:25:13.046Z,16.97
2023-11-12T05:27:41.814Z,16.77
2023-11-12T05:30:14.029Z,22.73
2023-11-12T05:32:42.855Z,15.20
2023-11-12T05:35:11.582Z,12.67
2023-11-12T05:37:40.255Z,14.00
2023-11-12T05:40:10.658Z,16.53
2023-11-12T05:42:39.359Z,13.40
2023-11-12T05:45:09.265Z,13.70
2023-11-12T05:47:39.520Z,11.33
2023-11-12T05:50:09.472Z,11.87
2023-11-12T05:52:39.266Z,13.80
2023-11-12T05:55:08.835Z,12.60
2023-11-12T05:57:37.524Z,15.57
2023-11-12T06:00:09.050Z,11.83
2023-11-12T06:02:39.469Z,11.50
2023-11-12T06:05:08.698Z,12.47
2023-11-12T06:07:37.469Z,10.63
2023-11-12T06:10:07.108Z,10.80
2023-11-12T06:12:35.920Z,11.00
2023-11-12T06:15:07.309Z,11.57
2023-11-12T06:17:36.294Z,12.17
2023-11-12T06:20:08.220Z,11.17
2023-11-12T06:22:36.969Z,11.20
2023-11-12T06:25:06.252Z,11.50
2023-11-12T06:27:37.011Z,11.23
2023-11-12T06:30:06.616Z,12.87
2023-11-12T06:32:35.362Z,12.10
2023-11-12T06:35:05.876Z,11.77
2023-11-12T06:37:34.537Z,11.33
2023-11-12T06:40:04.519Z,14.57
2023-11-12T06:42:33.635Z,13.07
2023-11-12T06:45:02.450Z,12.23
2023-11-12T06:47:31.137Z,13.97
2023-11-12T06:49:59.925Z,11.63
2023-11-12T06:52:30.062Z,11.80
2023-11-12T06:55:00.686Z,11.53
2023-11-12T06:57:30.232Z,13.63
2023-11-12T06:59:58.970Z,10.90
2023-11-12T07:02:27.739Z,9.83
2023-11-12T07:04:56.649Z,13.90
2023-11-12T07:07:25.554Z,12.57
2023-11-12T07:09:55.814Z,11.43
2023-11-12T07:12:24.733Z,11.77
2023-11-12T07:14:53.564Z,12.83
2023-11-12T07:17:22.224Z,11.23
2023-11-12T07:19:50.961Z,18.23
2023-11-12T07:22:19.684Z,12.60
2023-11-12T07:24:48.551Z,10.07
2023-11-12T07:27:19.504Z,10.57
2023-11-12T07:29:48.314Z,11.47
2023-11-12T07:32:17.177Z,10.97
2023-11-12T07:34:45.959Z,11.30
2023-11-12T07:37:14.642Z,10.47
2023-11-12T07:39:43.575Z,9.67
2023-11-12T07:42:12.366Z,9.80
2023-11-12T07:44:42.576Z,9.83
2023-11-12T07:47:11.299Z,11.47
2023-11-12T07:49:40.001Z,9.70
2023-11-12T07:52:08.728Z,10.00
2023-11-12T07:54:38.151Z,10.67
2023-11-12T07:57:07.212Z,9.50
2023-11-12T07:59:36.058Z,11.10
2023-11-12T08:02:06.362Z,11.33
2023-11-12T08:04:35.081Z,9.90
2023-11-12T08:07:03.811Z,9.60
2023-11-12T08:09:32.555Z,10.10
2023-11-12T08:12:01.280Z,10.03
2023-11-12T08:14:30.002Z,10.13
2023-11-12T08:16:58.740Z,9.07
2023-11-12T08:19:28.823Z,10.20
2023-11-12T08:21:57.520Z,9.73
2023-11-12T08:24:26.389Z,7.67
2023-11-12T08:26:55.120Z,9.10
2023-11-12T08:29:24.171Z,10.33
2023-11-12T08:31:52.918Z,9.73
2023-11-12T08:34:22.917Z,10.90
2023-11-12T08:36:53.716Z,9.27
2023-11-12T08:39:22.562Z,10.57
2023-11-12T08:41:53.888Z,8.63
2023-11-12T08:44:22.794Z,8.73
2023-11-12T08:46:53.260Z,9.07
2023-11-12T08:49:22.969Z,9.40
2023-11-12T08:51:53.103Z,10.97
2023-11-12T08:54:21.862Z,11.00
2023-11-12T08:56:50.516Z,10.90
2023-11-12T08:59:19.302Z,10.57
2023-11-12T09:01:48.101Z,10.23
2023-11-12T09:04:17.057Z,10.93
2023-11-12T09:06:45.880Z,10.43
2023-11-12T09:09:17.438Z,9.87
2023-11-12T09:11:46.260Z,9.90
2023-11-12T09:14:16.549Z,9.53
2023-11-12T09:16:46.771Z,9.00
2023-11-12T09:19:15.947Z,8.10
2023-11-12T09:21:45.101Z,9.03
2023-11-12T09:24:14.581Z,9.50
2023-11-12T09:26:45.510Z,9.33
2023-11-12T09:29:14.181Z,9.37
2023-11-12T09:31:42.987Z,8.93
2023-11-12T09:34:11.757Z,9.80
2023-11-12T09:36:40.482Z,8.83
2023-11-12T09:39:09.257Z,9.30
2023-11-12T09:41:45.427Z,8.20
2023-11-12T09:44:19.592Z,10.97
2023-11-12T09:47:03.177Z,8.50
2023-11-12T09:49:33.634Z,8.93
2023-11-12T09:52:02.778Z,9.20
2023-11-12T09:54:32.085Z,8.50
2023-11-12T09:57:08.403Z,8.20
2023-11-12T09:59:39.725Z,8.33
2023-11-12T10:02:09.156Z,8.00
2023-11-12T10:04:38.139Z,8.13
2023-11-12T10:07:07.351Z,8.20
2023-11-12T10:09:38.297Z,7.50
2023-11-12T10:12:08.948Z,7.27
2023-11-12T10:14:39.053Z,7.40
2023-11-12T10:17:08.823Z,8.50
2023-11-12T10:19:39.001Z,7.00
2023-11-12T10:22:08.790Z,8.30
2023-11-12T10:24:45.331Z,6.73
2023-11-12T10:27:15.879Z,7.60
2023-11-12T10:29:46.147Z,7.33
2023-11-12T10:32:28.067Z,7.30
2023-11-12T10:34:57.112Z,7.47
2023-11-12T10:37:25.984Z,7.77
2023-11-12T10:39:55.430Z,8.10
2023-11-12T10:42:26.779Z,7.90
2023-11-12T10:44:58.761Z,7.67
2023-11-12T10:47:28.999Z,7.20
2023-11-12T10:49:58.042Z,10.77
2023-11-12T10:52:29.709Z,8.23
2023-11-12T10:55:00.819Z,8.30
2023-11-12T10:57:31.539Z,7.40
2023-11-12T11:00:06.894Z,8.00
2023-11-12T11:02:38.223Z,7.03
2023-11-12T11:05:08.448Z,7.47
2023-11-12T11:07:38.912Z,7.80
2023-11-12T11:10:08.921Z,7.13
2023-11-12T11:12:38.791Z,7.20
2023-11-12T11:15:44.406Z,10.03
2023-11-12T11:19:04.633Z,8.27
2023-11-12T11:21:33.423Z,7.40
2023-11-12T11:24:03.679Z,7.40
2023-11-12T11:26:35.858Z,5.83
2023-11-12T11:29:17.805Z,5.87
2023-11-12T11:32:19.346Z,6.03
2023-11-12T11:34:50.079Z,6.90
2023-11-12T11:37:21.052Z,6.33
2023-11-12T11:39:50.764Z,7.10
2023-11-12T11:42:19.277Z,7.90
2023-11-12T11:44:50.925Z,6.60
2023-11-12T11:47:24.798Z,7.03
2023-11-12T11:50:46.018Z,6.43
2023-11-12T11:53:18.704Z,7.17
2023-11-12T11:55:52.783Z,7.83
2023-11-12T11:58:22.731Z,7.43
2023-11-12T12:01:01.567Z,8.23
2023-11-12T12:03:30.815Z,8.00
2023-11-12T12:06:01.182Z,6.03
2023-11-12T12:08:30.391Z,9.00
2023-11-12T12:10:59.318Z,7.70
2023-11-12T12:13:28.185Z,9.73
2023-11-12T12:15:57.227Z,11.73
2023-11-12T12:18:26.870Z,7.30
2023-11-12T12:20:57.353Z,8.07
2023-11-12T12:23:27.902Z,7.97
2023-11-12T12:25:57.231Z,7.30
2023-11-12T12:28:31.914Z,6.73
2023-11-12T12:31:00.848Z,6.90
2023-11-12T12:33:32.535Z,6.93
2023-11-12T12:36:01.622Z,8.50
2023-11-12T12:38:32.007Z,7.53
2023-11-12T12:41:04.423Z,6.53
2023-11-12T12:43:49.441Z,7.43
2023-11-12T12:46:18.419Z,5.80
2023-11-12T12:48:57.937Z,6.87
2023-11-12T12:51:26.765Z,6.93
2023-11-12T12:53:57.316Z,7.30
2023-11-12T12:56:26.031Z,6.40
2023-11-12T12:58:58.691Z,7.30
2023-11-12T13:01:27.479Z,7.57
2023-11-12T13:03:56.308Z,7.07
2023-11-12T13:06:25.116Z,6.83
2023-11-12T13:08:55.333Z,6.17
2023-11-12T13:11:28.682Z,8.03
2023-11-12T13:13:58.953Z,8.40
2023-11-12T13:16:27.819Z,7.00
2023-11-12T13:18:56.714Z,7.20
2023-11-12T13:21:26.270Z,7.43
2023-11-12T13:23:55.086Z,7.47
2023-11-12T13:26:25.560Z,7.87
2023-11-12T13:28:55.121Z,7.70
2023-11-12T13:31:25.052Z,6.27
2023-11-12T13:33:53.967Z,7.03
2023-11-12T13:36:22.765Z,6.27
2023-11-12T13:38:52.082Z,6.10
2023-11-12T13:41:22.338Z,6.27
2023-11-12T13:43:52.816Z,6.53
2023-11-12T13:46:23.205Z,7.33
2023-11-12T13:48:56.241Z,6.80
2023-11-12T13:51:27.335Z,6.47
2023-11-12T13:53:56.708Z,5.97
2023-11-12T13:56:25.664Z,6.40
2023-11-12T13:58:56.285Z,6.40
2023-11-12T14:01:26.117Z,6.10
2023-11-12T14:03:55.084Z,6.70
2023-11-12T14:06:24.495Z,10.00
2023-11-12T14:08:53.363Z,6.90
2023-11-12T14:11:22.405Z,5.90
2023-11-12T14:13:52.296Z,4.67
2023-11-12T14:16:24.890Z,6.03
2023-11-12T14:18:55.029Z,6.07
2023-11-12T14:21:25.501Z,8.40
2023-11-12T14:23:54.372Z,5.50
2023-11-12T14:26:24.469Z,5.70
2023-11-12T14:28:54.286Z,5.67
2023-11-12T14:31:24.705Z,6.50
2023-11-12T14:33:54.373Z,5.93
2023-11-12T14:36:26.299Z,6.10
2023-11-12T14:38:55.121Z,6.10
2023-11-12T14:41:23.855Z,7.43
2023-11-12T14:43:52.688Z,6.20
2023-11-12T14:46:21.537Z,6.07
2023-11-12T14:48:52.304Z,5.87
2023-11-12T14:51:21.527Z,4.53
2023-11-12T14:53:57.355Z,8.17
2023-11-12T14:56:33.024Z,6.60
2023-11-12T14:59:02.055Z,4.70
2023-11-12T15:01:30.921Z,8.13
2023-11-12T15:04:01.487Z,5.93
2023-11-12T15:06:32.178Z,5.73
2023-11-12T15:09:01.017Z,6.40
2023-11-12T15:11:32.667Z,6.43
2023-11-12T15:14:01.904Z,5.47
2023-11-12T15:16:32.039Z,5.17
2023-11-12T15:19:03.098Z,6.63
2023-11-12T15:21:32.577Z,6.57
2023-11-12T15:24:01.556Z,7.20
2023-11-12T15:26:30.461Z,5.40
2023-11-12T15:28:59.465Z,5.43
2023-11-12T15:31:28.545Z,6.70
2023-11-12T15:33:57.512Z,6.73
2023-11-12T15:36:28.886Z,5.67
2023-11-12T15:38:58.347Z,6.00
2023-11-12T15:41:27.260Z,6.67
2023-11-12T15:43:56.654Z,5.90
2023-11-12T15:46:25.732Z,6.10
2023-11-12T15:48:55.310Z,5.63
2023-11-12T15:51:24.490Z,6.43
2023-11-12T15:53:55.642Z,7.00
2023-11-12T15:56:25.564Z,7.60
2023-11-12T15:58:54.924Z,6.80
2023-11-12T16:01:24.533Z,7.07
2023-11-12T16:03:54.125Z,7.60
2023-11-12T16:06:23.068Z,8.17
2023-11-12T16:08:56.319Z,8.13
2023-11-12T16:11:29.890Z,7.63
2023-11-12T16:13:59.946Z,7.70
2023-11-12T16:16:29.208Z,7.63
2023-11-12T16:18:58.852Z,9.53
2023-11-12T16:21:29.265Z,8.97
2023-11-12T16:24:01.888Z,7.73
2023-11-12T16:26:33.896Z,7.40
2023-11-12T16:29:03.540Z,7.50
2023-11-12T16:31:33.074Z,8.63
2023-11-12T16:34:04.384Z,7.97
2023-11-12T16:36:35.250Z,7.30
2023-11-12T16:39:06.428Z,8.13
2023-11-12T16:41:38.906Z,8.67
2023-11-12T16:44:11.417Z,9.80
2023-11-12T16:46:41.522Z,13.10
2023-11-12T16:49:12.441Z,9.83
2023-11-12T16:51:42.716Z,9.33
2023-11-12T16:54:15.764Z,10.80
2023-11-12T16:56:48.458Z,9.93
2023-11-12T16:59:19.365Z,7.90
2023-11-12T17:01:50.112Z,9.90
2023-11-12T17:04:21.760Z,10.83
2023-11-12T17:06:52.995Z,8.30
2023-11-12T17:09:23.369Z,9.80
2023-11-12T17:11:56.039Z,9.33
2023-11-12T17:14:29.619Z,11.13
2023-11-12T17:17:00.521Z,11.00
2023-11-12T17:19:32.381Z,9.53
2023-11-12T17:22:03.134Z,11.33
2023-11-12T17:24:33.952Z,10.33
2023-11-12T17:27:07.021Z,11.13
2023-11-12T17:29:38.280Z,11.17
2023-11-12T17:32:09.661Z,9.30
2023-11-12T17:34:40.417Z,9.93
2023-11-12T17:37:11.150Z,9.67
2023-11-12T17:39:42.283Z,10.60
2023-11-12T17:42:15.174Z,12.20
2023-11-12T17:44:47.793Z,11.83
2023-11-12T17:47:18.779Z,10.93
2023-11-12T17:49:56.949Z,11.53
2023-11-12T17:52:28.252Z,12.20
2023-11-12T17:54:59.304Z,12.07
2023-11-12T17:57:32.690Z,15.40
2023-11-12T18:00:03.705Z,12.30
2023-11-12T18:02:38.390Z,14.67
2023-11-12T18:05:09.894Z,14.73
2023-11-12T18:07:41.917Z,12.93
2023-11-12T18:10:15.455Z,17.63
2023-11-12T18:12:47.983Z,19.33
2023-11-12T18:15:19.493Z,13.90
2023-11-12T18:17:50.506Z,16.47
2023-11-12T18:20:22.253Z,15.40
2023-11-12T18:22:55.069Z,15.90
2023-11-12T18:25:26.659Z,15.20
2023-11-12T18:28:07.102Z,15.70
2023-11-12T18:30:48.407Z,15.80
2023-11-12T18:33:23.522Z,17.87
2023-11-12T18:36:08.080Z,17.30
2023-11-12T18:38:41.426Z,17.43
2023-11-12T18:41:16.031Z,16.33
2023-11-12T18:43:50.636Z,17.43
2023-11-12T18:46:25.589Z,17.00
2023-11-12T18:48:59.196Z,15.50
2023-11-12T18:51:31.867Z,17.63
2023-11-12T18:54:06.500Z,20.37
2023-11-12T18:56:40.794Z,16.53
2023-11-12T18:59:17.795Z,17.50
2023-11-12T19:01:50.851Z,18.13
2023-11-12T19:04:33.263Z,18.27
2023-11-12T19:07:09.217Z,16.00
2023-11-12T19:09:41.135Z,17.97
2023-11-12T19:12:13.088Z,16.27
2023-11-12T19:14:47.401Z,16.37
2023-11-12T19:17:18.676Z,18.00
2023-11-12T19:19:51.202Z,16.40
2023-11-12T19:22:23.002Z,16.00
2023-11-12T19:24:56.512Z,17.80
2023-11-12T19:27:35.096Z,16.03
2023-11-12T19:30:15.578Z,18.10
2023-11-12T19:32:48.781Z,18.90
2023-11-12T19:35:21.244Z,19.00
2023-11-12T19:37:54.220Z,16.13
2023-11-12T19:40:38.137Z,17.93
2023-11-12T19:43:14.792Z,17.73
2023-11-12T19:45:51.189Z,17.57
2023-11-12T19:48:23.086Z,17.17
2023-11-12T19:50:56.498Z,15.73
2023-11-12T19:53:29.773Z,16.97
2023-11-12T19:56:02.665Z,16.43
2023-11-12T19:58:35.565Z,16.90
2023-11-12T20:01:33.629Z,15.67
2023-11-12T20:04:11.710Z,16.67
2023-11-12T20:06:48.834Z,16.07
2023-11-12T20:09:28.610Z,15.10
2023-11-12T20:12:02.148Z,14.67
2023-11-12T20:14:34.718Z,15.70
2023-11-12T20:17:12.759Z,14.80
2023-11-12T20:19:51.360Z,15.47
2023-11-12T20:22:26.562Z,15.60
2023-11-12T20:24:57.790Z,14.17
2023-11-12T20:27:29.456Z,16.97
2023-11-12T20:30:01.106Z,13.43
2023-11-12T20:32:34.845Z,11.97
2023-11-12T20:35:06.370Z,11.17
2023-11-12T20:37:38.216Z,8.83
2023-11-12T20:40:11.622Z,7.40
2023-11-12T20:42:45.235Z,9.73
2023-11-12T20:45:18.743Z,10.43
2023-11-12T20:48:04.725Z,11.17
2023-11-12T20:50:40.648Z,11.93
2023-11-12T20:53:14.972Z,12.20
2023-11-12T20:55:53.083Z,9.00
2023-11-12T20:58:30.870Z,9.93
2023-11-12T21:01:06.098Z,9.67
2023-11-12T21:03:39.383Z,9.33
2023-11-12T21:06:11.755Z,10.17
2023-11-12T21:08:41.751Z,9.90
2023-11-12T21:11:17.256Z,8.60
2023-11-12T21:13:48.388Z,7.87
2023-11-12T21:16:19.803Z,9.40
2023-11-12T21:18:52.461Z,9.17
2023-11-12T21:21:23.177Z,9.90
2023-11-12T21:23:53.451Z,9.03
2023-11-12T21:26:25.603Z,9.80
2023-11-12T21:28:55.574Z,10.07
2023-11-12T21:31:25.628Z,9.33
2023-11-12T21:33:55.809Z,9.90
2023-11-12T21:36:24.870Z,11.10
2023-11-12T21:38:54.100Z,11.27
2023-11-12T21:41:24.364Z,11.63
2023-11-12T21:43:54.080Z,12.87
2023-11-12T21:46:23.500Z,12.33
2023-11-12T21:48:54.578Z,11.80
2023-11-12T21:51:25.155Z,11.13
2023-11-12T21:53:53.780Z,10.87
2023-11-12T21:56:23.020Z,11.43
2023-11-12T21:58:51.664Z,12.33
2023-11-12T22:01:23.087Z,11.83
2023-11-12T22:03:52.067Z,10.70
2023-11-12T22:06:20.876Z,10.50
2023-11-12T22:08:51.009Z,10.37
2023-11-12T22:11:19.601Z,12.17
2023-11-12T22:13:48.260Z,11.93
2023-11-12T22:16:17.115Z,12.50
2023-11-12T22:18:45.964Z,12.27
2023-11-12T22:21:16.171Z,12.53
2023-11-12T22:23:44.857Z,12.17
2023-11-12T22:26:15.026Z,14.27
2023-11-12T22:28:43.711Z,13.83
2023-11-12T22:31:12.252Z,13.40
2023-11-12T22:33:40.970Z,13.20
2023-11-12T22:36:10.433Z,14.03
2023-11-12T22:38:39.122Z,13.97
2023-11-12T22:41:07.892Z,15.10
2023-11-12T22:43:38.015Z,14.73
2023-11-12T22:46:06.998Z,14.30
2023-11-12T22:48:38.944Z,12.97
2023-11-12T22:51:08.135Z,15.00
2023-11-12T22:53:38.536Z,15.07
2023-11-12T22:56:10.286Z,15.20
2023-11-12T22:58:40.611Z,16.00
2023-11-12T23:01:10.265Z,18.20
2023-11-12T23:03:40.041Z,17.83
2023-11-12T23:06:10.782Z,16.60
2023-11-12T23:08:40.984Z,17.50
2023-11-12T23:11:09.724Z,17.53
2023-11-12T23:13:40.145Z,17.87
2023-11-12T23:16:11.437Z,17.43
2023-11-12T23:18:41.041Z,16.97
2023-11-12T23:21:11.432Z,16.47
2023-11-12T23:23:40.971Z,17.30
2023-11-12T23:26:09.721Z,16.27
2023-11-12T23:28:40.013Z,16.70
2023-11-12T23:31:08.758Z,19.20
2023-11-12T23:33:37.617Z,15.63
2023-11-12T23:36:08.146Z,16.93
2023-11-12T23:38:36.879Z,26.83
2023-11-12T23:41:05.757Z,17.53
2023-11-12T23:43:34.830Z,16.10
2023-11-12T23:46:05.759Z,16.50
2023-11-12T23:48:37.497Z,18.00
2023-11-12T23:51:07.279Z,17.60
2023-11-12T23:53:39.240Z,18.50
2023-11-12T23:56:09.302Z,17.90
2023-11-12T23:58:37.961Z,21.07
